createdAt,value
2022-11-16T00:02:15.147Z,4.10
2022-11-16T00:04:42.449Z,4.40
2022-11-16T00:07:10.091Z,5.30
2022-11-16T00:09:37.903Z,4.73
2022-11-16T00:12:08.361Z,4.17
2022-11-16T00:14:36.784Z,4.27
2022-11-16T00:17:04.359Z,4.33
2022-11-16T00:19:31.907Z,4.70
2022-11-16T00:21:59.684Z,4.10
2022-11-16T00:24:26.930Z,5.20
2022-11-16T00:26:54.597Z,6.03
2022-11-16T00:29:24.457Z,4.93
2022-11-16T00:31:51.988Z,5.30
2022-11-16T00:34:19.285Z,5.83
2022-11-16T00:36:47.001Z,4.07
2022-11-16T00:39:15.044Z,6.20
2022-11-16T00:41:42.884Z,6.20
2022-11-16T00:44:10.501Z,6.10
2022-11-16T00:46:39.849Z,5.53
2022-11-16T00:49:07.091Z,4.43
2022-11-16T00:51:46.288Z,4.40
2022-11-16T00:54:13.680Z,4.57
2022-11-16T00:56:40.983Z,4.20
2022-11-16T00:59:08.611Z,3.73
2022-11-16T01:01:57.905Z,3.77
2022-11-16T01:08:19.037Z,4.53
2022-11-16T01:10:47.845Z,4.47
2022-11-16T01:13:15.099Z,5.40
2022-11-16T01:15:47.789Z,4.13
2022-11-16T01:18:15.225Z,4.53
2022-11-16T01:21:08.530Z,3.83
2022-11-16T01:23:36.453Z,4.60
2022-11-16T01:26:05.293Z,4.77
2022-11-16T01:28:36.179Z,3.90
2022-11-16T01:31:09.701Z,4.23
2022-11-16T01:37:20.110Z,3.90
2022-11-16T01:39:49.268Z,3.83
2022-11-16T01:42:19.693Z,4.23
2022-11-16T01:45:06.458Z,4.17
2022-11-16T01:47:33.986Z,5.13
2022-11-16T01:52:53.667Z,4.40
2022-11-16T01:55:23.351Z,4.77
2022-11-16T01:58:10.953Z,5.50
2022-11-16T02:00:40.297Z,4.23
2022-11-16T02:03:26.882Z,5.23
2022-11-16T02:06:24.362Z,5.40
2022-11-16T02:12:42.969Z,4.30
2022-11-16T02:15:16.554Z,5.50
2022-11-16T02:17:51.078Z,5.70
2022-11-16T02:20:29.933Z,5.77
2022-11-16T02:23:07.813Z,5.80
2022-11-16T02:25:46.965Z,5.20
2022-11-16T02:28:21.216Z,5.77
2022-11-16T02:30:51.206Z,5.47
2022-11-16T02:33:21.535Z,5.60
2022-11-16T02:36:03.388Z,4.20
2022-11-16T02:39:06.518Z,5.57
2022-11-16T02:41:36.331Z,4.83
2022-11-16T02:44:05.530Z,4.63
2022-11-16T02:46:37.764Z,4.80
2022-11-16T02:49:10.281Z,4.07
2022-11-16T02:51:38.340Z,3.90
2022-11-16T02:56:58.245Z,3.53
2022-11-16T02:59:30.191Z,4.00
2022-11-16T03:02:01.309Z,3.20
2022-11-16T03:04:40.643Z,3.30
2022-11-16T03:07:11.592Z,3.33
2022-11-16T03:09:55.286Z,3.80
2022-11-16T03:12:45.397Z,3.00
2022-11-16T03:15:25.412Z,3.33
2022-11-16T03:17:54.645Z,3.50
2022-11-16T03:20:26.574Z,3.70
2022-11-16T03:22:55.620Z,2.93
2022-11-16T03:25:24.150Z,3.57
2022-11-16T03:27:55.764Z,3.87
2022-11-16T03:33:18.678Z,3.30
2022-11-16T03:35:49.969Z,2.80
2022-11-16T03:38:19.001Z,3.33
2022-11-16T03:40:47.729Z,3.73
2022-11-16T03:43:16.183Z,4.23
2022-11-16T03:45:56.037Z,4.10
2022-11-16T03:48:38.603Z,3.13
2022-11-16T03:51:13.031Z,3.80
2022-11-16T03:53:41.289Z,3.93
2022-11-16T03:56:15.837Z,3.43
2022-11-16T03:58:43.202Z,3.60
2022-11-16T04:01:10.559Z,3.30
2022-11-16T04:06:23.048Z,3.63
2022-11-16T04:08:50.415Z,3.30
2022-11-16T04:11:20.241Z,3.13
2022-11-16T04:13:58.281Z,3.33
2022-11-16T04:16:59.507Z,3.73
2022-11-16T04:19:32.756Z,3.37
2022-11-16T04:22:02.814Z,3.70
2022-11-16T04:24:36.248Z,3.93
2022-11-16T04:27:04.437Z,3.67
2022-11-16T04:29:32.715Z,3.57
2022-11-16T04:32:00.487Z,3.90
2022-11-16T04:34:33.882Z,3.57
2022-11-16T04:37:04.529Z,3.47
2022-11-16T04:39:32.349Z,3.40
2022-11-16T04:41:59.894Z,4.13
2022-11-16T04:48:18.755Z,3.80
2022-11-16T04:50:46.971Z,3.73
2022-11-16T04:53:16.512Z,3.03
2022-11-16T04:55:47.833Z,3.10
2022-11-16T04:58:15.160Z,3.73
2022-11-16T05:00:42.745Z,3.50
2022-11-16T05:03:16.781Z,5.23
2022-11-16T05:05:44.936Z,4.07
2022-11-16T05:08:12.226Z,4.07
2022-11-16T05:10:40.780Z,4.67
2022-11-16T05:13:28.485Z,3.77
2022-11-16T05:16:20.990Z,3.30
2022-11-16T05:18:54.821Z,2.80
2022-11-16T05:21:22.647Z,3.17
2022-11-16T05:23:51.432Z,3.30
2022-11-16T05:26:23.324Z,3.17
2022-11-16T05:28:54.245Z,3.60
2022-11-16T05:31:22.885Z,2.40
2022-11-16T05:33:50.394Z,2.77
2022-11-16T05:36:19.331Z,3.00
2022-11-16T05:38:49.942Z,3.10
2022-11-16T05:41:20.287Z,2.53
2022-11-16T05:43:50.422Z,3.40
2022-11-16T05:46:21.718Z,2.73
2022-11-16T05:49:04.762Z,2.33
2022-11-16T05:51:50.940Z,3.67
2022-11-16T05:54:21.220Z,2.93
2022-11-16T05:56:48.930Z,2.77
2022-11-16T05:59:19.845Z,2.83
2022-11-16T06:01:50.453Z,2.67
2022-11-16T06:04:24.345Z,2.40
2022-11-16T06:06:52.298Z,2.60
2022-11-16T06:09:19.686Z,2.80
2022-11-16T06:11:48.852Z,2.63
2022-11-16T06:14:16.611Z,3.00
2022-11-16T06:16:45.939Z,2.90
2022-11-16T06:19:13.662Z,3.53
2022-11-16T06:21:41.788Z,3.10
2022-11-16T06:24:14.945Z,3.60
2022-11-16T06:26:43.177Z,4.03
2022-11-16T06:29:10.435Z,5.43
2022-11-16T06:31:37.733Z,4.30
2022-11-16T06:34:24.880Z,3.60
2022-11-16T06:37:07.745Z,3.73
2022-11-16T06:39:35.407Z,4.37
2022-11-16T06:42:03.173Z,3.43
2022-11-16T06:44:30.694Z,2.80
2022-11-16T06:47:01.788Z,2.83
2022-11-16T06:49:36.987Z,3.03
2022-11-16T06:52:10.134Z,3.40
2022-11-16T06:54:37.522Z,2.67
2022-11-16T06:57:05.325Z,2.33
2022-11-16T06:59:33.107Z,3.23
2022-11-16T07:02:00.425Z,3.17
2022-11-16T07:04:32.124Z,2.50
2022-11-16T07:07:01.165Z,2.80
2022-11-16T07:09:28.650Z,3.00
2022-11-16T07:11:56.414Z,3.17
2022-11-16T07:14:24.124Z,2.93
2022-11-16T07:16:56.274Z,2.90
2022-11-16T07:19:26.594Z,3.73
2022-11-16T07:21:53.800Z,2.63
2022-11-16T07:24:22.559Z,2.73
2022-11-16T07:26:49.829Z,2.70
2022-11-16T07:29:20.700Z,3.23
2022-11-16T07:32:07.162Z,2.60
2022-11-16T07:34:59.383Z,2.73
2022-11-16T07:37:27.514Z,2.77
2022-11-16T07:39:56.117Z,2.50
2022-11-16T07:42:24.688Z,2.57
2022-11-16T07:45:02.478Z,2.80
2022-11-16T07:47:36.461Z,2.60
2022-11-16T07:50:04.595Z,2.37
2022-11-16T07:52:33.497Z,2.40
2022-11-16T07:55:09.942Z,2.30
2022-11-16T07:57:37.438Z,3.93
2022-11-16T08:00:07.906Z,2.77
2022-11-16T08:02:44.952Z,3.07
2022-11-16T08:05:18.197Z,2.70
2022-11-16T08:07:46.221Z,2.93
2022-11-16T08:10:15.277Z,3.47
2022-11-16T08:12:42.617Z,3.13
2022-11-16T08:15:11.526Z,3.13
2022-11-16T08:17:38.816Z,3.27
2022-11-16T08:20:08.297Z,3.67
2022-11-16T08:22:35.598Z,2.63
2022-11-16T08:25:03.465Z,3.13
2022-11-16T08:27:33.537Z,2.67
2022-11-16T08:30:01.827Z,3.70
2022-11-16T08:32:29.606Z,3.10
2022-11-16T08:34:56.892Z,2.90
2022-11-16T08:37:24.175Z,3.70
2022-11-16T08:39:51.577Z,3.00
2022-11-16T08:42:20.265Z,2.83
2022-11-16T08:44:50.705Z,3.07
2022-11-16T08:47:20.182Z,3.00
2022-11-16T08:49:56.083Z,2.80
2022-11-16T08:52:25.497Z,2.80
2022-11-16T08:54:54.302Z,2.73
2022-11-16T08:57:21.840Z,2.70
2022-11-16T08:59:55.422Z,3.30
2022-11-16T09:02:22.673Z,2.43
2022-11-16T09:04:49.912Z,2.57
2022-11-16T09:07:17.181Z,3.53
2022-11-16T09:09:44.434Z,3.03
2022-11-16T09:12:11.723Z,2.53
2022-11-16T09:14:38.975Z,3.00
2022-11-16T09:17:07.593Z,2.90
2022-11-16T09:19:35.117Z,3.00
2022-11-16T09:22:02.364Z,3.07
2022-11-16T09:24:29.609Z,3.00
2022-11-16T09:26:56.853Z,2.30
2022-11-16T09:29:24.058Z,2.93
2022-11-16T09:31:51.249Z,3.37
2022-11-16T09:34:19.849Z,3.17
2022-11-16T09:36:47.148Z,2.60
2022-11-16T09:39:30.045Z,3.20
2022-11-16T09:42:04.592Z,2.40
2022-11-16T09:44:39.758Z,3.03
2022-11-16T09:47:10.422Z,2.60
2022-11-16T09:53:32.765Z,2.20
2022-11-16T09:56:01.928Z,2.80
2022-11-16T09:58:31.725Z,4.10
2022-11-16T10:01:02.468Z,2.83
2022-11-16T10:03:32.970Z,2.73
2022-11-16T10:06:01.770Z,2.67
2022-11-16T10:11:30.104Z,3.40
2022-11-16T10:14:04.195Z,2.10
2022-11-16T10:16:36.500Z,2.60
2022-11-16T10:19:07.811Z,2.60
2022-11-16T10:21:41.455Z,2.97
2022-11-16T10:28:02.860Z,4.27
2022-11-16T10:30:34.097Z,2.80
2022-11-16T10:33:06.707Z,2.90
2022-11-16T10:35:38.906Z,1.93
2022-11-16T10:38:12.233Z,3.87
2022-11-16T10:40:39.941Z,3.30
2022-11-16T10:43:13.004Z,3.03
2022-11-16T10:46:03.642Z,3.23
2022-11-16T10:48:33.629Z,3.20
2022-11-16T10:51:02.179Z,2.37
2022-11-16T10:53:52.228Z,3.23
2022-11-16T10:56:36.374Z,2.40
2022-11-16T10:59:04.802Z,3.07
2022-11-16T11:01:38.427Z,3.23
2022-11-16T11:04:23.283Z,3.00
2022-11-16T11:06:51.460Z,3.10
2022-11-16T11:09:26.817Z,3.00
2022-11-16T11:14:58.455Z,3.47
2022-11-16T11:17:27.582Z,3.43
2022-11-16T11:19:57.923Z,3.13
2022-11-16T11:22:25.273Z,2.33
2022-11-16T11:24:52.666Z,2.33
2022-11-16T11:31:14.748Z,3.20
2022-11-16T11:33:49.381Z,3.07
2022-11-16T11:36:19.333Z,3.10
2022-11-16T11:38:56.211Z,2.73
2022-11-16T11:41:23.821Z,2.60
2022-11-16T11:44:01.289Z,3.00
2022-11-16T11:46:47.548Z,2.73
2022-11-16T11:49:21.327Z,3.00
2022-11-16T11:51:50.197Z,2.97
2022-11-16T11:54:18.909Z,3.07
2022-11-16T11:56:46.186Z,2.73
2022-11-16T11:59:19.605Z,2.63
2022-11-16T12:02:00.232Z,3.53
2022-11-16T12:04:51.635Z,3.47
2022-11-16T12:07:28.193Z,3.43
2022-11-16T12:09:59.046Z,3.80
2022-11-16T12:12:38.317Z,3.20
2022-11-16T12:15:16.446Z,3.13
2022-11-16T12:18:19.561Z,2.40
2022-11-16T12:21:05.801Z,3.10
2022-11-16T12:23:46.964Z,3.47
2022-11-16T12:26:17.801Z,3.93
2022-11-16T12:28:51.379Z,3.00
2022-11-16T12:31:36.586Z,3.47
2022-11-16T12:34:09.178Z,4.17
2022-11-16T12:36:39.370Z,3.30
2022-11-16T12:39:16.440Z,3.57
2022-11-16T12:41:59.026Z,3.10
2022-11-16T12:44:33.102Z,3.10
2022-11-16T12:47:05.721Z,3.43
2022-11-16T12:49:50.856Z,3.57
2022-11-16T12:52:23.055Z,3.60
2022-11-16T12:55:25.484Z,2.97
2022-11-16T12:58:00.390Z,3.67
2022-11-16T13:00:29.885Z,3.67
2022-11-16T13:03:01.078Z,3.40
2022-11-16T13:05:44.430Z,2.67
2022-11-16T13:08:13.170Z,3.20
2022-11-16T13:10:43.115Z,3.47
2022-11-16T13:13:35.312Z,2.90
2022-11-16T13:16:19.131Z,3.70
2022-11-16T13:22:39.156Z,2.70
2022-11-16T13:25:13.222Z,2.77
2022-11-16T13:27:43.497Z,3.20
2022-11-16T13:30:16.667Z,3.33
2022-11-16T13:33:03.833Z,3.93
2022-11-16T13:38:50.200Z,2.73
2022-11-16T13:41:27.412Z,2.53
2022-11-16T13:43:54.834Z,2.43
2022-11-16T13:49:52.062Z,2.80
2022-11-16T13:52:28.794Z,3.00
2022-11-16T13:55:13.554Z,3.70
2022-11-16T13:57:42.290Z,2.43
2022-11-16T14:00:10.933Z,2.30
2022-11-16T14:02:38.820Z,2.50
2022-11-16T14:05:06.189Z,2.73
2022-11-16T14:07:36.729Z,2.83
2022-11-16T14:10:04.783Z,3.33
2022-11-16T14:12:56.135Z,3.83
2022-11-16T14:15:25.020Z,2.87
2022-11-16T14:17:53.654Z,2.43
2022-11-16T14:24:14.406Z,2.53
2022-11-16T14:26:45.041Z,3.07
2022-11-16T14:29:26.636Z,2.60
2022-11-16T14:31:55.624Z,3.57
2022-11-16T14:34:44.384Z,2.87
2022-11-16T14:37:13.625Z,2.73
2022-11-16T14:39:43.187Z,2.93
2022-11-16T14:42:16.652Z,2.50
2022-11-16T14:44:44.150Z,2.50
2022-11-16T14:47:21.330Z,2.40
2022-11-16T14:52:29.853Z,3.00
2022-11-16T14:54:59.263Z,2.13
2022-11-16T14:57:27.181Z,2.30
2022-11-16T15:00:15.418Z,2.67
2022-11-16T15:03:07.445Z,2.63
2022-11-16T15:05:46.938Z,2.37
2022-11-16T15:08:17.881Z,1.93
2022-11-16T15:10:52.109Z,2.13
2022-11-16T15:13:20.434Z,3.20
2022-11-16T15:15:47.661Z,2.27
2022-11-16T15:18:18.120Z,3.10
2022-11-16T15:20:48.905Z,2.63
2022-11-16T15:23:16.325Z,2.60
2022-11-16T15:25:44.635Z,2.87
2022-11-16T15:28:17.397Z,3.00
2022-11-16T15:34:40.066Z,2.63
2022-11-16T15:37:11.324Z,2.40
2022-11-16T15:39:39.226Z,2.83
2022-11-16T15:42:06.807Z,3.07
2022-11-16T15:44:35.513Z,2.80
2022-11-16T15:47:03.807Z,2.33
2022-11-16T15:52:14.069Z,2.83
2022-11-16T15:54:41.485Z,3.63
2022-11-16T15:57:10.083Z,2.87
2022-11-16T16:03:33.124Z,3.20
2022-11-16T16:06:02.995Z,2.77
2022-11-16T16:08:31.864Z,3.50
2022-11-16T16:11:00.321Z,2.67
2022-11-16T16:13:29.391Z,2.03
2022-11-16T16:16:11.886Z,2.57
2022-11-16T16:18:55.838Z,3.53
2022-11-16T16:21:24.719Z,2.97
2022-11-16T16:23:53.454Z,3.40
2022-11-16T16:26:21.120Z,2.60
2022-11-16T16:35:51.913Z,3.13
2022-11-16T16:38:20.851Z,3.47
2022-11-16T16:40:48.464Z,2.57
2022-11-16T16:43:16.153Z,2.97
2022-11-16T16:45:43.862Z,3.03
2022-11-16T16:48:20.674Z,3.30
2022-11-16T16:50:48.035Z,2.80
2022-11-16T16:53:15.444Z,2.73
2022-11-16T16:55:44.400Z,2.87
2022-11-16T16:58:26.702Z,1.97
2022-11-16T17:04:54.514Z,2.70
2022-11-16T17:07:21.941Z,2.30
2022-11-16T17:09:49.295Z,2.83
2022-11-16T17:12:17.882Z,3.33
2022-11-16T17:14:45.145Z,3.00
2022-11-16T17:20:10.869Z,2.37
2022-11-16T17:22:38.457Z,2.57
2022-11-16T17:25:06.036Z,2.53
2022-11-16T17:27:34.879Z,2.80
2022-11-16T17:30:02.164Z,2.77
2022-11-16T17:32:51.941Z,3.13
2022-11-16T17:38:32.204Z,3.23
2022-11-16T17:41:06.469Z,3.17
2022-11-16T17:43:35.419Z,4.00
2022-11-16T17:46:03.899Z,3.20
2022-11-16T17:48:31.066Z,2.90
2022-11-16T17:50:58.272Z,3.10
2022-11-16T17:53:31.231Z,3.33
2022-11-16T17:55:59.840Z,3.17
2022-11-16T17:58:27.700Z,2.90
2022-11-16T18:00:56.546Z,3.70
2022-11-16T18:03:23.920Z,2.83
2022-11-16T18:05:51.269Z,2.90
2022-11-16T18:08:18.550Z,2.93
2022-11-16T18:10:45.812Z,3.20
2022-11-16T18:13:13.009Z,2.80
2022-11-16T18:15:42.503Z,3.50
2022-11-16T18:18:11.605Z,3.27
2022-11-16T18:20:38.885Z,3.53
2022-11-16T18:23:06.084Z,2.87
2022-11-16T18:25:34.417Z,2.80
2022-11-16T18:28:01.600Z,3.83
2022-11-16T18:30:28.938Z,2.70
2022-11-16T18:32:56.401Z,2.80
2022-11-16T18:35:24.978Z,2.40
2022-11-16T18:37:52.204Z,2.87
2022-11-16T18:40:19.537Z,3.10
2022-11-16T18:42:46.773Z,3.53
2022-11-16T18:45:13.986Z,3.37
2022-11-16T18:47:41.176Z,3.03
2022-11-16T18:50:11.672Z,2.93
2022-11-16T18:52:45.333Z,2.83
2022-11-16T18:55:12.637Z,2.70
2022-11-16T18:57:39.890Z,3.03
2022-11-16T19:00:07.747Z,2.80
2022-11-16T19:02:34.981Z,2.57
2022-11-16T19:05:02.188Z,2.70
2022-11-16T19:07:29.466Z,3.20
2022-11-16T19:09:58.024Z,2.40
2022-11-16T19:12:25.282Z,2.60
2022-11-16T19:14:52.526Z,3.00
2022-11-16T19:17:19.701Z,2.73
2022-11-16T19:19:46.921Z,2.33
2022-11-16T19:22:14.184Z,2.40
2022-11-16T19:24:41.550Z,2.30
2022-11-16T19:27:10.124Z,3.17
2022-11-16T19:29:37.347Z,2.63
2022-11-16T19:32:04.712Z,2.70
2022-11-16T19:34:33.458Z,3.70
2022-11-16T19:37:00.846Z,2.67
2022-11-16T19:39:28.066Z,3.40
2022-11-16T19:41:55.238Z,2.87
2022-11-16T19:44:23.825Z,3.93
2022-11-16T19:46:51.007Z,2.77
2022-11-16T19:49:20.231Z,3.23
2022-11-16T19:51:47.561Z,2.53
2022-11-16T19:54:14.789Z,2.40
2022-11-16T19:56:42.556Z,3.50
2022-11-16T19:59:09.733Z,2.77
2022-11-16T20:01:38.386Z,2.80
2022-11-16T20:04:05.776Z,2.40
2022-11-16T20:06:34.126Z,2.73
2022-11-16T20:09:02.492Z,2.60
2022-11-16T20:11:31.429Z,2.47
2022-11-16T20:13:58.994Z,4.20
2022-11-16T20:16:27.224Z,2.67
2022-11-16T20:18:55.793Z,2.73
2022-11-16T20:21:24.263Z,3.00
2022-11-16T20:23:51.541Z,3.03
2022-11-16T20:26:19.595Z,2.80
2022-11-16T20:28:47.063Z,2.90
2022-11-16T20:31:15.000Z,2.30
2022-11-16T20:33:42.608Z,2.67
2022-11-16T20:36:12.005Z,3.20
2022-11-16T20:38:39.880Z,2.93
2022-11-16T20:41:11.220Z,2.67
2022-11-16T20:43:38.851Z,2.50
2022-11-16T20:46:06.112Z,2.90
2022-11-16T20:48:33.308Z,3.30
2022-11-16T20:51:00.525Z,3.20
2022-11-16T20:53:29.227Z,3.37
2022-11-16T20:55:56.443Z,2.77
2022-11-16T20:58:23.649Z,3.17
2022-11-16T21:00:51.206Z,2.57
2022-11-16T21:03:18.532Z,3.17
2022-11-16T21:05:46.361Z,3.70
2022-11-16T21:08:13.873Z,3.10
2022-11-16T21:10:42.504Z,3.03
2022-11-16T21:13:11.402Z,3.03
2022-11-16T21:15:38.650Z,2.80
2022-11-16T21:18:06.338Z,2.57
2022-11-16T21:20:33.549Z,3.07
2022-11-16T21:23:00.753Z,2.50
2022-11-16T21:25:27.947Z,2.83
2022-11-16T21:27:56.530Z,3.30
2022-11-16T21:30:23.792Z,3.33
2022-11-16T21:32:50.998Z,2.93
2022-11-16T21:35:18.198Z,3.00
2022-11-16T21:37:45.377Z,3.83
2022-11-16T21:40:13.036Z,3.60
2022-11-16T21:42:40.269Z,2.37
2022-11-16T21:45:09.824Z,2.97
2022-11-16T21:47:37.053Z,3.63
2022-11-16T21:52:51.889Z,2.93
2022-11-16T21:55:19.155Z,3.00
2022-11-16T21:57:46.337Z,2.87
2022-11-16T22:00:15.782Z,2.63
2022-11-16T22:02:43.111Z,3.40
2022-11-16T22:05:10.506Z,4.00
2022-11-16T22:07:37.754Z,3.30
2022-11-16T22:10:06.958Z,3.67
2022-11-16T22:12:34.406Z,2.80
2022-11-16T22:15:02.026Z,2.57
2022-11-16T22:17:30.670Z,2.50
2022-11-16T22:19:57.884Z,3.13
2022-11-16T22:22:25.505Z,2.93
2022-11-16T22:24:52.812Z,2.53
2022-11-16T22:27:20.381Z,2.73
2022-11-16T22:29:47.624Z,2.63
2022-11-16T22:32:14.809Z,2.83
2022-11-16T22:34:43.542Z,2.50
2022-11-16T22:37:10.864Z,3.13
2022-11-16T22:39:38.086Z,2.37
2022-11-16T22:42:05.500Z,2.33
2022-11-16T22:44:32.745Z,3.20
2022-11-16T22:47:00.012Z,3.30
2022-11-16T22:49:28.632Z,3.43
2022-11-16T22:51:57.548Z,2.83
2022-11-16T22:54:28.583Z,2.40
2022-11-16T22:56:56.255Z,2.70
2022-11-16T22:59:23.576Z,2.50
2022-11-16T23:01:51.132Z,2.93
2022-11-16T23:04:18.462Z,2.60
2022-11-16T23:06:45.759Z,2.53
2022-11-16T23:09:14.642Z,2.87
2022-11-16T23:11:42.023Z,3.00
2022-11-16T23:14:11.318Z,2.17
2022-11-16T23:16:39.101Z,2.83
2022-11-16T23:19:22.405Z,2.90
2022-11-16T23:22:02.641Z,2.53
2022-11-16T23:24:31.241Z,1.73
2022-11-16T23:26:59.300Z,2.60
2022-11-16T23:29:26.496Z,3.33
2022-11-16T23:31:53.640Z,2.50
2022-11-16T23:34:20.845Z,3.27
2022-11-16T23:39:40.344Z,2.77
2022-11-16T23:42:08.450Z,2.33
2022-11-16T23:44:35.657Z,2.80
2022-11-16T23:47:02.919Z,2.50
2022-11-16T23:49:30.114Z,2.20
2022-11-16T23:52:03.407Z,2.47
2022-11-16T23:54:40.089Z,2.27
2022-11-16T23:57:12.050Z,2.10
2022-11-16T23:59:39.212Z,2.03
